Time;durP1;ratioP1;P1;durP2;ratioP2;P2;SDS_P1;SDS_P2;PMS_P1;PMS_P2;Temp;Humidity;BMP_temperature;BMP_pressure;BME280_temperature;BME280_humidity;BME280_pressure;Samples;Min_cycle;Max_cycle;Signal;HPM_P1;HPM_P2
2021/09/04 00:02:03;;;;;;;6.35;3.90;;;;;;;14.07;71.58;99097.53;1694434;84;21095;-67
2021/09/04 00:04:30;;;;;;;6.87;4.20;;;;;;;14.08;71.59;99096.42;1694831;84;20997;-67
2021/09/04 00:06:58;;;;;;;6.90;3.87;;;;;;;14.08;71.76;99099.71;1693936;84;21031;-67
2021/09/04 00:09:25;;;;;;;8.98;4.50;;;;;;;14.10;71.74;99094.75;1650168;85;21526;-67
2021/09/04 00:11:53;;;;;;;7.70;3.95;;;;;;;14.14;71.67;99095.72;1700264;83;21514;-67
2021/09/04 00:14:19;;;;;;;;;;;;;;;14.14;71.75;99099.27;1697737;83;21027;-67
2021/09/04 00:16:47;;;;;;;;;;;;;;;14.14;71.80;99093.80;1671483;85;20130;-67
2021/09/04 00:19:13;;;;;;;6.15;3.70;;;;;;;14.06;72.04;99102.77;1655052;85;20140;-67
2021/09/04 00:21:40;;;;;;;5.97;3.65;;;;;;;13.95;72.42;99102.20;1692301;83;21716;-67
2021/09/04 00:24:07;;;;;;;6.40;4.15;;;;;;;13.97;72.48;99099.14;1694408;84;21533;-67
2021/09/04 00:26:33;;;;;;;;;;;;;;;14.00;72.48;99100.44;1696342;84;21019;-67
2021/09/04 00:29:00;;;;;;;7.15;3.90;;;;;;;14.02;72.60;99100.95;1689397;84;20145;-67
2021/09/04 00:31:26;;;;;;;7.65;4.60;;;;;;;14.00;72.79;99105.36;1684628;84;21521;-66
2021/09/04 00:33:52;;;;;;;;;;;;;;;13.98;73.03;99104.06;1694370;84;21522;-66
2021/09/04 00:36:19;;;;;;;6.55;4.20;;;;;;;13.92;73.20;99102.80;1690437;85;20115;-67
2021/09/04 00:38:45;;;;;;;7.72;3.95;;;;;;;13.85;73.57;99103.00;1690587;84;21489;-66
2021/09/04 00:41:19;;;;;;;8.60;4.20;;;;;;;13.88;73.60;99101.82;1689623;84;21019;-66
2021/09/04 00:43:45;;;;;;;6.53;4.40;;;;;;;13.91;73.65;99111.33;1690543;84;21540;-67
2021/09/04 00:46:12;;;;;;;7.70;4.37;;;;;;;13.89;73.73;99103.97;1687963;84;21551;-67
2021/09/04 00:48:39;;;;;;;8.50;4.20;;;;;;;13.86;73.85;99102.67;1688115;84;21050;-67
2021/09/04 00:51:05;;;;;;;;;;;;;;;13.87;73.94;99100.75;1693075;84;21565;-67
2021/09/04 00:53:32;;;;;;;8.13;4.17;;;;;;;13.83;74.01;99103.29;1690448;85;20158;-67
2021/09/04 00:55:59;;;;;;;7.35;4.30;;;;;;;13.67;74.31;99111.59;1689920;84;21624;-67
2021/09/04 00:58:26;;;;;;;5.42;3.67;;;;;;;13.66;74.30;99108.60;1690349;84;21050;-66
2021/09/04 01:00:53;;;;;;;6.78;4.33;;;;;;;13.61;74.22;99107.33;1690640;84;21082;-66
2021/09/04 01:03:20;;;;;;;9.95;4.45;;;;;;;13.56;74.29;99111.56;1690781;84;21681;-66
2021/09/04 01:05:48;;;;;;;9.90;4.67;;;;;;;13.48;74.49;99105.44;1690420;84;21053;-66
2021/09/04 01:08:15;;;;;;;7.65;4.50;;;;;;;13.44;74.66;99112.62;1690406;85;21101;-66
2021/09/04 01:10:43;;;;;;;7.45;4.40;;;;;;;13.44;74.74;99113.44;1690703;84;21621;-66
2021/09/04 01:13:10;;;;;;;7.67;4.72;;;;;;;13.44;74.85;99111.27;1690248;84;21022;-67
2021/09/04 01:15:38;;;;;;;6.92;4.17;;;;;;;13.42;74.97;99114.31;1690115;85;21025;-66
2021/09/04 01:18:06;;;;;;;8.60;4.25;;;;;;;13.38;74.96;99106.47;1690364;85;21548;-67
2021/09/04 01:20:33;;;;;;;7.10;4.20;;;;;;;13.34;74.93;99105.45;1688920;84;21061;-67
2021/09/04 01:23:00;;;;;;;9.68;4.67;;;;;;;13.32;74.92;99110.40;1690627;84;21050;-67
2021/09/04 01:25:29;;;;;;;6.30;3.87;;;;;;;13.30;74.89;99109.09;1688201;85;21047;-67
2021/09/04 01:27:59;;;;;;;7.10;4.40;;;;;;;13.28;74.85;99109.97;1682752;85;21039;-67
2021/09/04 01:30:27;;;;;;;9.48;4.90;;;;;;;13.22;74.97;99110.61;1682436;85;21502;-66
2021/09/04 01:32:53;;;;;;;8.13;4.28;;;;;;;13.16;75.15;99107.73;1682601;85;21066;-67
2021/09/04 01:35:21;;;;;;;;;;;;;;;13.15;75.26;99108.02;1688656;85;20964;-66
2021/09/04 01:37:47;;;;;;;7.80;4.65;;;;;;;13.11;75.36;99109.19;1682786;85;20167;-66
2021/09/04 01:40:14;;;;;;;;;;;;;;;12.99;75.65;99108.86;1682386;84;20996;-67
2021/09/04 01:42:41;;;;;;;6.90;4.65;;;;;;;12.95;75.79;99119.59;1686104;84;20184;-66
2021/09/04 01:45:09;;;;;;;8.35;4.80;;;;;;;12.90;76.02;99118.30;1685954;85;20968;-66
2021/09/04 01:47:35;;;;;;;7.03;4.12;;;;;;;12.89;75.99;99115.89;1684579;84;20914;-66
2021/09/04 01:50:03;;;;;;;7.60;4.30;;;;;;;12.87;75.99;99114.00;1736092;82;20971;-66
2021/09/04 01:52:29;;;;;;;6.70;4.20;;;;;;;12.86;76.04;99117.83;1735688;81;21131;-66
2021/09/04 01:54:56;;;;;;;;;;;;;;;12.80;76.16;99107.56;1738087;82;21027;-67
2021/09/04 01:57:22;;;;;;;6.58;4.20;;;;;;;12.79;76.16;99120.96;1726865;81;20514;-66
2021/09/04 01:59:49;;;;;;;9.70;4.55;;;;;;;12.69;76.40;99121.70;1735442;82;21017;-66
2021/09/04 02:02:15;;;;;;;8.23;4.33;;;;;;;12.66;76.49;99132.67;1735639;83;21051;-66
2021/09/04 02:04:42;;;;;;;6.87;4.47;;;;;;;12.68;76.43;99129.66;1734118;82;21019;-66
2021/09/04 02:07:09;;;;;;;7.50;4.42;;;;;;;12.68;76.29;99132.39;1734538;81;21063;-66
2021/09/04 02:09:35;;;;;;;;;;;;;;;12.66;76.33;99126.40;1734193;83;20990;-67
2021/09/04 02:12:01;;;;;;;7.90;4.33;;;;;;;12.65;76.36;99127.50;1719073;83;20118;-67
2021/09/04 02:14:28;;;;;;;9.15;4.60;;;;;;;12.61;76.46;99126.51;1721148;83;21079;-66
2021/09/04 02:16:54;;;;;;;6.55;4.33;;;;;;;12.57;76.66;99125.48;1733626;82;21600;-67
2021/09/04 02:19:24;;;;;;;7.00;4.62;;;;;;;12.53;76.89;99128.55;1735331;83;21036;-66
2021/09/04 02:21:52;;;;;;;7.72;4.28;;;;;;;12.53;77.05;99125.81;1735692;82;21650;-67
2021/09/04 02:24:19;;;;;;;10.10;4.78;;;;;;;12.56;77.15;99129.31;1735054;83;21011;-66
2021/09/04 02:26:48;;;;;;;8.50;4.62;;;;;;;12.54;77.32;99129.59;1735243;82;21511;-67
2021/09/04 02:29:16;;;;;;;8.70;4.87;;;;;;;12.60;77.41;99135.25;1735936;83;20978;-66
2021/09/04 02:31:42;;;;;;;6.85;4.60;;;;;;;12.61;77.52;99136.06;1735591;81;21006;-66
2021/09/04 02:34:11;;;;;;;7.40;4.83;;;;;;;12.59;77.67;99132.80;1732873;81;21002;-66
2021/09/04 02:36:39;;;;;;;7.22;4.33;;;;;;;12.61;77.73;99131.97;1732481;81;21044;-67
2021/09/04 02:39:06;;;;;;;8.73;4.42;;;;;;;12.65;77.62;99126.14;1733988;83;20984;-67
2021/09/04 02:41:33;;;;;;;8.95;4.70;;;;;;;12.69;77.51;99128.53;1725038;83;21000;-67
2021/09/04 02:44:00;;;;;;;9.53;4.53;;;;;;;12.71;77.54;99120.86;1725653;83;21003;-67
2021/09/04 02:46:28;;;;;;;7.30;4.40;;;;;;;12.73;77.54;99119.99;1728825;83;21609;-66
2021/09/04 02:48:54;;;;;;;7.83;5.08;;;;;;;12.76;77.57;99120.75;1735696;82;21031;-65
2021/09/04 02:51:22;;;;;;;7.42;4.10;;;;;;;12.74;77.66;99121.62;1731058;81;20991;-66
2021/09/04 02:53:48;;;;;;;7.03;4.58;;;;;;;12.71;77.86;99129.05;1732146;82;21004;-67
2021/09/04 02:56:15;;;;;;;7.55;4.72;;;;;;;12.69;78.17;99124.43;1732551;83;21002;-67
2021/09/04 02:58:42;;;;;;;8.98;4.85;;;;;;;12.66;78.33;99117.66;1733359;82;21023;-66
2021/09/04 03:01:09;;;;;;;8.75;4.80;;;;;;;12.61;78.53;99125.14;1732379;82;21059;-67
2021/09/04 03:03:37;;;;;;;7.60;4.42;;;;;;;12.57;78.69;99133.67;1732378;82;21490;-67
2021/09/04 03:06:04;;;;;;;7.70;4.85;;;;;;;12.55;78.75;99146.80;1732702;83;21067;-67
2021/09/04 03:08:33;;;;;;;8.50;4.70;;;;;;;12.54;78.83;99149.29;1730003;83;21055;-67
2021/09/04 03:11:00;;;;;;;9.58;5.08;;;;;;;12.53;78.96;99162.67;1714637;82;21113;-67
2021/09/04 03:13:26;;;;;;;;;;;;;;;12.54;79.00;99172.50;1713232;83;21011;-67
2021/09/04 03:15:53;;;;;;;7.33;4.93;;;;;;;12.55;79.05;99168.09;1729855;81;20531;-67
2021/09/04 03:18:21;;;;;;;6.47;4.47;;;;;;;12.47;79.24;99181.85;1708976;83;21059;-67
2021/09/04 03:20:48;;;;;;;7.22;4.28;;;;;;;12.50;79.25;99183.75;1730745;82;21028;-67
2021/09/04 03:23:15;;;;;;;8.90;4.83;;;;;;;12.53;79.16;99187.25;1731499;82;21537;-67
2021/09/04 03:25:43;;;;;;;8.00;4.08;;;;;;;12.56;79.06;99188.01;1731123;81;21125;-67
2021/09/04 03:28:10;;;;;;;7.83;4.42;;;;;;;12.54;79.05;99195.70;1732436;83;21510;-67
2021/09/04 03:30:38;;;;;;;6.97;3.92;;;;;;;12.48;79.09;99203.95;1732582;83;21039;-67
2021/09/04 03:33:04;;;;;;;6.05;4.20;;;;;;;12.51;79.05;99216.20;1730953;82;21033;-67
2021/09/04 03:35:31;;;;;;;6.28;3.77;;;;;;;12.54;79.01;99213.45;1731049;81;21090;-66
2021/09/04 03:37:58;;;;;;;4.75;3.42;;;;;;;12.55;78.97;99215.05;1720192;83;21515;-67
2021/09/04 03:40:24;;;;;;;6.08;3.62;;;;;;;12.52;78.97;99223.84;1729018;81;20998;-67
2021/09/04 03:42:52;;;;;;;6.25;3.60;;;;;;;12.45;79.08;99222.30;1732222;83;21385;-67
2021/09/04 03:45:19;;;;;;;;;;;;;;;12.39;79.27;99219.40;1733462;81;20971;-66
2021/09/04 03:47:45;;;;;;;4.83;3.20;;;;;;;12.35;79.51;99231.20;1733086;83;20422;-66
2021/09/04 03:50:12;;;;;;;5.05;3.10;;;;;;;12.29;79.83;99230.44;1729262;82;20997;-66
2021/09/04 03:52:39;;;;;;;8.13;3.77;;;;;;;12.36;79.90;99243.74;1696917;82;21409;-67
2021/09/04 03:55:07;;;;;;;8.05;3.72;;;;;;;12.42;79.81;99243.92;1733089;82;21013;-67
2021/09/04 03:57:35;;;;;;;6.03;3.42;;;;;;;12.49;79.75;99245.73;1738009;82;20990;-66
2021/09/04 04:00:04;;;;;;;5.15;3.15;;;;;;;12.55;79.67;99246.45;1731757;82;21565;-67
2021/09/04 04:02:32;;;;;;;5.72;3.00;;;;;;;12.57;79.65;99248.34;1731818;82;21065;-66
2021/09/04 04:04:59;;;;;;;6.70;3.15;;;;;;;12.59;79.53;99250.20;1732952;83;21006;-67
2021/09/04 04:07:29;;;;;;;5.47;2.70;;;;;;;12.60;79.48;99251.84;1710891;81;21093;-65
2021/09/04 04:09:55;;;;;;;4.35;3.05;;;;;;;12.58;79.44;99256.22;1730249;82;21016;-67
2021/09/04 04:12:23;;;;;;;6.67;3.10;;;;;;;12.54;79.43;99257.13;1722232;83;21067;-67
2021/09/04 04:14:50;;;;;;;7.62;2.72;;;;;;;12.49;79.52;99274.39;1732685;83;21124;-67
2021/09/04 04:17:18;;;;;;;3.58;2.10;;;;;;;12.46;79.65;99267.61;1727129;81;21513;-67
2021/09/04 04:19:45;;;;;;;3.90;2.20;;;;;;;12.50;79.69;99273.29;1726262;82;21036;-67
2021/09/04 04:22:13;;;;;;;2.95;1.90;;;;;;;12.45;79.54;99274.72;1734008;83;21035;-67
2021/09/04 04:24:40;;;;;;;3.35;2.15;;;;;;;12.34;79.73;99275.96;1734978;83;21672;-67
2021/09/04 04:27:07;;;;;;;3.72;2.27;;;;;;;12.32;80.04;99273.55;1733147;83;21075;-67
2021/09/04 04:29:34;;;;;;;4.90;2.20;;;;;;;12.38;80.15;99284.64;1731717;83;20987;-66
2021/09/04 04:32:01;;;;;;;3.12;2.10;;;;;;;12.46;80.13;99286.72;1730482;83;21065;-67
2021/09/04 04:34:29;;;;;;;3.55;2.25;;;;;;;12.47;79.86;99283.41;1718041;82;21047;-67
2021/09/04 04:36:57;;;;;;;4.05;2.42;;;;;;;12.48;79.88;99287.22;1738110;81;21122;-67
2021/09/04 04:39:24;;;;;;;4.03;1.98;;;;;;;12.52;79.70;99294.27;1738197;82;21524;-67
2021/09/04 04:41:52;;;;;;;3.12;2.00;;;;;;;12.52;79.53;99305.73;1741504;81;21545;-67
2021/09/04 04:44:18;;;;;;;3.85;2.12;;;;;;;12.55;79.58;99315.52;1730464;81;21035;-67
2021/09/04 04:46:45;;;;;;;4.53;2.40;;;;;;;12.62;79.55;99305.04;1731682;82;21074;-67
2021/09/04 04:49:12;;;;;;;4.72;2.37;;;;;;;12.66;79.35;99310.17;1733622;82;21521;-67
2021/09/04 04:51:39;;;;;;;3.62;1.90;;;;;;;12.67;79.18;99315.09;1735536;82;21011;-66
2021/09/04 04:54:06;;;;;;;;;;;;;;;12.66;79.12;99317.00;1734405;82;21562;-66
2021/09/04 04:56:34;;;;;;;4.03;2.00;;;;;;;12.65;79.14;99309.91;1734582;82;20127;-67
2021/09/04 04:59:01;;;;;;;5.00;2.37;;;;;;;12.64;79.38;99312.95;1741985;82;21028;-65
2021/09/04 05:01:28;;;;;;;4.12;2.60;;;;;;;12.68;79.39;99319.45;1738844;82;21031;-67
2021/09/04 05:03:56;;;;;;;5.08;2.80;;;;;;;12.69;79.27;99321.87;1736732;82;21522;-67
2021/09/04 05:06:23;;;;;;;3.02;2.00;;;;;;;12.73;79.25;99331.09;1743058;82;21082;-67
2021/09/04 05:08:50;;;;;;;5.12;2.05;;;;;;;12.82;79.11;99325.21;1738942;82;21019;-68
2021/09/04 05:11:17;;;;;;;2.92;1.80;;;;;;;12.85;78.82;99333.39;1730301;82;21039;-67
2021/09/04 05:13:43;;;;;;;3.83;1.90;;;;;;;12.88;78.52;99341.80;1719577;82;21006;-67
2021/09/04 05:16:11;;;;;;;3.67;1.42;;;;;;;12.85;78.02;99339.67;1741943;82;21047;-67
2021/09/04 05:18:40;;;;;;;2.40;1.40;;;;;;;12.83;77.87;99341.05;1724183;82;21019;-68
2021/09/04 05:21:07;;;;;;;2.47;1.32;;;;;;;12.84;77.17;99343.50;1731562;82;21030;-68
2021/09/04 05:23:33;;;;;;;;;;;;;;;12.84;76.78;99350.88;1736309;82;21020;-68
2021/09/04 05:26:00;;;;;;;2.30;1.27;;;;;;;12.81;76.01;99348.20;1686677;84;20113;-67
2021/09/04 05:28:28;;;;;;;2.40;1.30;;;;;;;12.73;76.09;99347.48;1668342;84;21613;-66
2021/09/04 05:30:54;;;;;;;3.25;1.80;;;;;;;12.74;76.12;99353.77;1694989;84;21034;-67
2021/09/04 05:33:20;;;;;;;;;;;;;;;12.79;75.30;99350.94;1697614;84;21075;-64
2021/09/04 05:35:46;;;;;;;3.55;1.47;;;;;;;12.83;75.13;99368.37;1689813;84;20111;-67
2021/09/04 05:38:13;;;;;;;3.40;1.42;;;;;;;12.74;74.24;99364.69;1690740;85;21551;-67
2021/09/04 05:40:39;;;;;;;2.62;1.22;;;;;;;12.67;73.20;99366.42;1687982;85;21057;-66
2021/09/04 05:43:05;;;;;;;;;;;;;;;12.64;72.30;99370.30;1692900;84;21034;-68
2021/09/04 05:45:32;;;;;;;3.42;1.47;;;;;;;12.62;71.94;99373.30;1690152;85;20382;-66
2021/09/04 05:47:59;;;;;;;2.47;1.22;;;;;;;12.55;72.07;99374.77;1662527;85;21019;-65
2021/09/04 05:50:25;;;;;;;;;;;;;;;12.53;71.43;99381.09;1726150;83;21117;-65
2021/09/04 05:52:52;;;;;;;2.92;1.40;;;;;;;12.57;70.65;99381.58;1726094;82;20142;-65
2021/09/04 05:55:19;;;;;;;13.20;7.20;;;;;;;12.52;69.56;99380.27;1721429;83;21071;-67
2021/09/04 05:57:45;;;;;;;8.15;5.33;;;;;;;12.60;69.10;99388.37;1720424;83;21007;-65
2021/09/04 06:00:12;;;;;;;5.15;3.05;;;;;;;12.73;68.62;99387.09;1722719;82;21015;-67
2021/09/04 06:02:40;;;;;;;5.55;1.87;;;;;;;12.89;68.07;99393.16;1714954;82;20973;-67
2021/09/04 06:05:07;;;;;;;4.15;1.30;;;;;;;12.92;67.50;99391.20;1728646;82;21028;-66
2021/09/04 06:07:34;;;;;;;3.70;2.60;;;;;;;12.99;67.30;99394.38;1723192;83;21042;-67
2021/09/04 06:10:00;;;;;;;1.80;0.90;;;;;;;13.03;66.95;99401.43;1724050;83;21051;-66
2021/09/04 06:12:26;;;;;;;2.75;1.10;;;;;;;13.12;66.66;99392.29;1718781;83;21597;-65
2021/09/04 06:14:54;;;;;;;1.95;0.80;;;;;;;13.25;66.40;99387.42;1721982;82;21032;-66
2021/09/04 06:17:21;;;;;;;2.52;0.70;;;;;;;13.34;65.86;99387.03;1725731;82;21594;-66
2021/09/04 06:19:47;;;;;;;1.57;1.00;;;;;;;13.34;65.83;99391.67;1724862;83;21160;-65
2021/09/04 06:22:14;;;;;;;5.62;3.02;;;;;;;13.37;65.57;99397.36;1724847;83;21070;-66
2021/09/04 06:24:41;;;;;;;6.22;2.50;;;;;;;13.39;65.12;99386.14;1724750;82;21459;-66
2021/09/04 06:27:07;;;;;;;2.58;1.10;;;;;;;13.50;65.20;99399.87;1723783;82;21025;-66
2021/09/04 06:29:33;;;;;;;2.12;0.85;;;;;;;13.58;64.69;99399.20;1724761;83;21088;-65
2021/09/04 06:32:00;;;;;;;2.98;1.65;;;;;;;13.71;64.24;99407.20;1724630;83;21553;-65
2021/09/04 06:34:26;;;;;;;;;;;;;;;13.74;63.66;99416.17;1728695;82;21062;-66
2021/09/04 06:36:52;;;;;;;2.58;1.10;;;;;;;13.83;63.47;99418.46;1673635;84;20137;-66
2021/09/04 06:39:19;;;;;;;;;;;;;;;13.93;62.93;99427.86;1732864;82;21083;-67
2021/09/04 06:41:45;;;;;;;3.65;1.55;;;;;;;14.01;62.41;99426.35;1727461;82;20087;-66
2021/09/04 06:44:11;;;;;;;;;;;;;;;14.02;62.37;99424.70;1739012;82;21530;-66
2021/09/04 06:46:38;;;;;;;2.50;0.95;;;;;;;14.20;62.25;99438.88;1681793;85;20097;-67
2021/09/04 06:49:05;;;;;;;2.85;1.25;;;;;;;14.16;61.76;99437.84;1705459;83;21556;-66
2021/09/04 06:51:33;;;;;;;2.12;1.05;;;;;;;14.14;61.77;99435.13;1701393;84;21124;-66
2021/09/04 06:53:59;;;;;;;2.47;0.93;;;;;;;14.19;61.82;99437.23;1730990;82;21495;-66
2021/09/04 06:56:26;;;;;;;2.85;1.37;;;;;;;14.17;61.19;99433.19;1731913;81;21095;-68
2021/09/04 06:58:53;;;;;;;2.80;1.35;;;;;;;14.18;60.95;99444.37;1732001;83;21448;-67
2021/09/04 07:01:19;;;;;;;3.20;1.15;;;;;;;14.25;60.59;99450.26;1732399;81;21087;-68
2021/09/04 07:03:45;;;;;;;;;;;;;;;14.33;60.96;99453.67;1728314;83;20985;-67
2021/09/04 07:06:11;;;;;;;2.37;1.17;;;;;;;14.47;60.55;99455.08;1721414;83;20161;-66
2021/09/04 07:08:38;;;;;;;2.60;1.17;;;;;;;14.49;60.50;99455.60;1716806;83;21435;-67
2021/09/04 07:11:04;;;;;;;4.50;1.10;;;;;;;14.63;60.30;99450.34;1729836;83;21020;-67
2021/09/04 07:13:32;;;;;;;2.12;1.10;;;;;;;14.93;60.68;99446.98;1731104;82;20940;-67
2021/09/04 07:15:58;;;;;;;3.42;1.10;;;;;;;15.35;59.98;99455.36;1712078;83;21023;-67
2021/09/04 07:18:25;;;;;;;;;;;;;;;15.61;59.15;99456.98;1733679;82;20979;-67
2021/09/04 07:20:52;;;;;;;3.25;1.35;;;;;;;15.78;58.19;99460.39;1687504;83;20106;-68
2021/09/04 07:23:18;;;;;;;3.52;1.20;;;;;;;15.75;57.61;99468.70;1673381;85;20972;-67
2021/09/04 07:25:44;;;;;;;3.77;1.02;;;;;;;15.75;57.83;99459.09;1685496;84;21055;-67
2021/09/04 07:28:11;;;;;;;;;;;;;;;15.77;57.77;99468.37;1652520;84;20988;-67
2021/09/04 07:30:37;;;;;;;4.50;1.17;;;;;;;15.63;58.03;99467.06;1649069;87;20133;-68
2021/09/04 07:33:04;;;;;;;2.30;1.00;;;;;;;15.54;57.97;99468.13;1652054;87;21004;-68
2021/09/04 07:35:30;;;;;;;1.42;0.78;;;;;;;15.65;57.95;99470.88;1704651;82;21061;-68
2021/09/04 07:37:56;;;;;;;;;;;;;;;15.80;57.26;99474.63;1689859;84;21015;-68
2021/09/04 07:40:23;;;;;;;2.47;1.12;;;;;;;15.90;56.79;99466.14;1693806;83;20116;-68
2021/09/04 07:42:50;;;;;;;1.50;0.80;;;;;;;15.97;57.64;99464.32;1694643;83;21007;-67
2021/09/04 07:45:16;;;;;;;;;;;;;;;16.07;56.17;99463.50;1691576;84;21020;-66
2021/09/04 07:47:42;;;;;;;1.72;0.85;;;;;;;16.21;56.73;99460.66;1680757;83;20118;-67
2021/09/04 07:50:09;;;;;;;;;;;;;;;16.38;55.20;99463.48;1684747;83;20999;-67
2021/09/04 07:52:35;;;;;;;2.67;1.12;;;;;;;16.37;53.19;99472.28;1678629;84;20107;-68
2021/09/04 07:55:02;;;;;;;2.70;0.75;;;;;;;16.16;53.28;99471.77;1706926;83;21426;-67
2021/09/04 07:57:28;;;;;;;;;;;;;;;16.14;53.52;99477.59;1710510;83;21038;-67
2021/09/04 07:59:56;;;;;;;2.90;0.90;;;;;;;16.26;53.65;99477.80;1686817;83;20446;-68
2021/09/04 08:02:23;;;;;;;1.40;0.60;;;;;;;16.31;53.58;99484.55;1682611;84;21530;-67
2021/09/04 08:04:49;;;;;;;1.60;0.70;;;;;;;16.44;52.13;99487.75;1689455;84;21067;-67
2021/09/04 08:07:15;;;;;;;;;;;;;;;16.36;51.29;99481.67;1677931;84;21037;-67
2021/09/04 08:09:42;;;;;;;1.95;0.70;;;;;;;16.18;51.56;99484.64;1683639;84;20166;-67
2021/09/04 08:12:08;;;;;;;;;;;;;;;16.02;52.17;99480.09;1693589;85;21083;-67
2021/09/04 08:14:34;;;;;;;1.32;0.80;;;;;;;16.10;52.28;99479.34;1656242;86;20158;-67
2021/09/04 08:17:00;;;;;;;;;;;;;;;16.24;51.60;99480.06;1640929;87;21054;-67
2021/09/04 08:19:28;;;;;;;2.27;0.60;;;;;;;16.56;50.62;99474.02;1690262;84;20162;-67
2021/09/04 08:21:55;;;;;;;0.90;0.40;;;;;;;16.78;50.11;99465.14;1693387;85;21042;-67
2021/09/04 08:24:21;;;;;;;1.35;0.50;;;;;;;17.17;49.21;99465.63;1684574;84;20977;-67
2021/09/04 08:26:47;;;;;;;2.25;0.60;;;;;;;17.52;48.56;99465.08;1678113;85;21096;-67
2021/09/04 08:29:14;;;;;;;2.10;0.50;;;;;;;17.76;46.87;99471.48;1693823;85;21029;-67
2021/09/04 08:31:42;;;;;;;1.85;0.50;;;;;;;17.73;45.20;99469.39;1693376;85;21530;-67
2021/09/04 08:34:08;;;;;;;4.10;0.93;;;;;;;17.70;45.38;99466.72;1685592;84;20961;-68
2021/09/04 08:36:35;;;;;;;1.05;0.42;;;;;;;17.79;44.92;99462.56;1686825;84;21624;-67
2021/09/04 08:39:01;;;;;;;2.47;0.85;;;;;;;17.77;44.61;99464.86;1678506;85;21055;-67
2021/09/04 08:41:27;;;;;;;2.45;0.80;;;;;;;17.64;44.96;99472.12;1668937;85;21073;-68
2021/09/04 08:43:54;;;;;;;1.80;0.70;;;;;;;17.50;44.86;99470.67;1677860;85;20972;-67
2021/09/04 08:46:20;;;;;;;1.55;0.60;;;;;;;17.37;44.79;99473.24;1666807;84;21099;-67
2021/09/04 08:48:46;;;;;;;4.33;1.60;;;;;;;17.12;44.97;99465.77;1732193;82;20988;-67
2021/09/04 08:51:13;;;;;;;;;;;;;;;16.90;44.95;99465.31;1735798;81;21055;-67
2021/09/04 08:53:39;;;;;;;1.20;0.50;;;;;;;16.64;44.70;99483.68;1689597;83;20107;-67
2021/09/04 08:56:09;;;;;;;1.98;0.47;;;;;;;16.42;45.41;99468.59;1733363;83;21017;-67
2021/09/04 08:58:37;;;;;;;1.37;0.50;;;;;;;16.47;46.00;99475.90;1714888;83;20972;-66
2021/09/04 09:01:24;;;;;;;2.08;0.50;;;;;;;16.52;45.84;99474.37;1732776;83;21012;-66
2021/09/04 09:03:51;;;;;;;3.58;1.00;;;;;;;16.50;45.27;99476.08;1717873;83;21444;-66
2021/09/04 09:06:28;;;;;;;2.50;0.70;;;;;;;16.62;45.98;99473.55;1729713;81;21082;-66
2021/09/04 09:08:55;;;;;;;1.90;0.47;;;;;;;16.67;45.00;99476.17;1732517;82;21014;-66
2021/09/04 09:11:23;;;;;;;4.00;0.60;;;;;;;16.61;45.37;99478.02;1732225;83;21910;-67
2021/09/04 09:13:55;;;;;;;1.15;0.50;;;;;;;16.44;44.51;99471.83;1732998;83;21031;-66
2021/09/04 09:16:23;;;;;;;1.50;0.45;;;;;;;16.40;45.40;99482.64;1732670;82;21057;-66
2021/09/04 09:18:57;;;;;;;1.40;0.60;;;;;;;16.44;45.54;99492.44;1728603;83;20983;-66
2021/09/04 09:21:31;;;;;;;2.15;0.70;;;;;;;16.51;44.76;99490.04;1719200;81;21043;-66
2021/09/04 09:24:15;;;;;;;2.40;0.60;;;;;;;16.45;44.92;99485.82;1732445;82;21050;-67
2021/09/04 09:27:00;;;;;;;3.40;0.60;;;;;;;16.46;44.89;99486.64;1699001;83;21410;-66
2021/09/04 09:29:32;;;;;;;1.40;0.60;;;;;;;16.47;45.13;99495.95;1733023;83;21544;-66
2021/09/04 09:32:10;;;;;;;1.65;0.70;;;;;;;16.44;44.92;99482.81;1732576;81;21029;-66
2021/09/04 09:34:44;;;;;;;1.15;0.55;;;;;;;16.36;45.11;99487.17;1732463;83;21045;-66
2021/09/04 09:37:12;;;;;;;0.93;0.50;;;;;;;16.35;46.11;99486.91;1730124;81;21093;-66
2021/09/04 09:39:41;;;;;;;1.27;0.50;;;;;;;16.50;46.03;99493.13;1732788;83;20960;-66
2021/09/04 09:42:10;;;;;;;1.70;0.60;;;;;;;16.74;45.99;99492.20;1732520;82;21071;-66
2021/09/04 09:44:38;;;;;;;3.45;0.60;;;;;;;16.97;44.37;99494.30;1731954;82;21466;-66
2021/09/04 09:47:10;;;;;;;1.20;0.50;;;;;;;16.97;44.23;99496.46;1729819;81;21035;-67
2021/09/04 09:49:43;;;;;;;1.65;0.50;;;;;;;16.99;44.05;99498.34;1730029;83;21467;-65
2021/09/04 09:52:17;;;;;;;1.65;0.60;;;;;;;16.96;44.15;99494.86;1732332;81;21127;-65
2021/09/04 09:54:45;;;;;;;1.67;0.80;;;;;;;16.88;43.75;99512.14;1731882;83;21008;-65
2021/09/04 09:57:12;;;;;;;1.87;0.72;;;;;;;16.63;43.38;99503.22;1732036;83;21075;-64
2021/09/04 09:59:38;;;;;;;;;;;;;;;16.37;43.84;99503.06;1736411;83;21893;-65
2021/09/04 10:02:07;;;;;;;1.42;0.50;;;;;;;16.24;43.60;99504.78;1667672;84;20137;-65
2021/09/04 10:04:34;;;;;;;1.55;0.70;;;;;;;16.01;44.08;99507.31;1719393;83;21390;-64
2021/09/04 10:07:03;;;;;;;3.67;0.85;;;;;;;15.83;44.18;99514.63;1720230;83;21030;-63
2021/09/04 10:09:31;;;;;;;3.20;0.90;;;;;;;15.76;44.91;99503.82;1732127;83;20974;-63
2021/09/04 10:11:58;;;;;;;1.25;0.50;;;;;;;15.77;45.67;99508.16;1719708;82;21105;-64
2021/09/04 10:14:26;;;;;;;2.55;0.72;;;;;;;15.88;45.43;99506.24;1725226;83;21424;-65
2021/09/04 10:16:57;;;;;;;2.35;0.90;;;;;;;16.07;45.41;99510.17;1731648;81;21539;-63
2021/09/04 10:19:29;;;;;;;1.60;0.75;;;;;;;16.28;44.31;99505.78;1729891;83;21493;-64
2021/09/04 10:22:05;;;;;;;1.82;1.05;;;;;;;16.51;43.84;99497.50;1732222;83;21108;-62
2021/09/04 10:24:47;;;;;;;1.70;0.78;;;;;;;16.81;45.63;99500.80;1725270;83;21014;-64
2021/09/04 10:27:32;;;;;;;1.98;0.70;;;;;;;17.13;43.06;99499.02;1722658;83;21414;-65
2021/09/04 10:30:01;;;;;;;1.20;0.60;;;;;;;17.29;42.79;99491.10;1716488;83;20986;-64
2021/09/04 10:32:27;;;;;;;1.98;0.82;;;;;;;17.30;42.43;99501.80;1691109;84;21054;-65
2021/09/04 10:35:06;;;;;;;4.92;1.00;;;;;;;17.09;42.49;99511.79;1715590;83;21038;-63
2021/09/04 10:37:36;;;;;;;1.77;0.70;;;;;;;16.87;42.81;99514.63;1731149;81;21090;-67
2021/09/04 10:40:10;;;;;;;0.95;0.40;;;;;;;16.64;43.07;99515.84;1729759;82;20972;-67
2021/09/04 10:42:44;;;;;;;1.92;0.75;;;;;;;16.44;43.09;99528.97;1728591;83;21389;-66
2021/09/04 10:45:15;;;;;;;1.62;0.80;;;;;;;16.18;43.69;99525.27;1727887;83;21498;-67
2021/09/04 10:50:20;;;;;;;2.20;0.90;;;;;;;15.96;44.08;99530.77;1801865;79;22857;-65
2021/09/04 10:53:03;;;;;;;4.42;0.90;;;;;;;15.71;44.27;99525.33;1689424;85;21022;-67
2021/09/04 10:55:38;;;;;;;1.17;0.60;;;;;;;15.62;44.80;99523.09;1694398;84;21608;-66
2021/09/04 10:58:12;;;;;;;3.05;0.60;;;;;;;15.68;45.42;99527.33;1702045;84;21429;-65
2021/09/04 11:00:43;;;;;;;1.62;0.72;;;;;;;15.79;44.93;99533.38;1689225;84;21109;-66
2021/09/04 11:03:23;;;;;;;3.08;0.90;;;;;;;15.89;44.90;99530.39;1669689;85;21203;-67
2021/09/04 11:05:56;;;;;;;1.72;0.75;;;;;;;16.04;44.73;99532.77;1690703;84;21538;-66
2021/09/04 11:08:30;;;;;;;1.42;0.60;;;;;;;16.13;42.88;99530.88;1692606;84;21086;-67
2021/09/04 11:11:19;;;;;;;6.10;2.35;;;;;;;16.17;41.82;99528.32;1692220;84;21577;-66
2021/09/04 11:13:56;;;;;;;10.72;3.42;;;;;;;16.24;43.43;99521.82;1686323;84;21090;-66
2021/09/04 11:16:47;;;;;;;2.92;1.32;;;;;;;16.46;42.50;99522.35;1689812;84;21125;-67
2021/09/04 11:19:32;;;;;;;2.85;0.90;;;;;;;16.57;41.82;99525.11;1703025;84;21584;-71
2021/09/04 11:22:10;;;;;;;2.33;1.05;;;;;;;16.63;42.28;99521.09;1689569;84;21046;-70
2021/09/04 11:24:38;;;;;;;9.50;7.50;;;;;;;16.78;41.76;99536.61;1687951;84;21079;-71
2021/09/04 11:27:08;;;;;;;1.60;0.90;;;;;;;16.70;42.30;99526.38;1688951;84;21070;-68
2021/09/04 11:29:44;;;;;;;4.87;1.87;;;;;;;16.47;42.51;99523.42;1702573;84;21043;-69
2021/09/04 11:32:12;;;;;;;2.35;1.05;;;;;;;16.25;43.33;99527.02;1692028;84;21074;-73
2021/09/04 11:34:52;;;;;;;16.10;11.05;;;;;;;16.24;43.94;99528.69;1695433;84;21125;-68
2021/09/04 11:37:31;;;;;;;4.62;2.17;;;;;;;16.35;43.45;99522.63;1686463;84;21122;-67
2021/09/04 11:40:14;;;;;;;4.30;0.85;;;;;;;16.44;42.45;99520.72;1696064;84;21165;-67
2021/09/04 11:42:48;;;;;;;46.08;34.13;;;;;;;16.49;40.98;99515.66;1689184;84;21079;-66
2021/09/04 11:45:19;;;;;;;6.03;3.83;;;;;;;16.58;41.91;99513.78;1691017;84;21090;-68
2021/09/04 11:47:47;;;;;;;13.50;9.40;;;;;;;16.79;42.31;99518.96;1699386;84;21624;-67
2021/09/04 11:50:25;;;;;;;1.80;0.80;;;;;;;17.03;41.95;99510.33;1681030;83;21562;-65